Terminal Aerodrome Forecast
Issued by NWS Denver/Boulder, CO

Home | Current Version | Previous Version | Text Only | Print | Product List | Glossary On
Versions: 1 2 3 4 5 6 7 8 9 10 11 12 13 14 15 16 17 18 19 20 21 22 23 24 25 26 27 28 29 30 31 32 33 34 35 36 37 38 39 40 41 42 43 44 45 46 47 48 49 50
000
FTUS45 KBOU 191124
TAFDEN
TAF
KDEN 191124Z 1912/2018 19014KT P6SM SKC
     FM191300 30007KT P6SM FEW140 SCT200
     FM191430 02011G19KT P6SM SCT140 SCT220
     FM191700 04010KT P6SM FEW090 SCT140
     FM192200 09011KT P6SM SCT090 SCT140
     FM200100 14010KT P6SM SCT090 BKN140
     FM200300 22007KT P6SM FEW090 BKN140
     FM200600 35010KT P6SM SCT090 BKN120=

USA.gov is the U.S. government's official web portal to all federal, state and local government web resources and services.